sensor_id;sensor_type;location;lat;lon;timestamp;temperature;humidity
71096;DHT22;58753;49.440;11.126;2023-02-01T00:01:54;4.02;85.78
71096;DHT22;58753;49.440;11.126;2023-02-01T00:04:20;4.00;85.88
71096;DHT22;58753;49.440;11.126;2023-02-01T00:06:45;4.06;86.14
71096;DHT22;58753;49.440;11.126;2023-02-01T00:09:12;3.97;86.40
71096;DHT22;58753;49.440;11.126;2023-02-01T00:11:37;3.96;86.63
71096;DHT22;58753;49.440;11.126;2023-02-01T00:14:03;3.86;86.92
71096;DHT22;58753;49.440;11.126;2023-02-01T00:16:29;3.87;87.22
71096;DHT22;58753;49.440;11.126;2023-02-01T00:21:26;3.86;87.66
71096;DHT22;58753;49.440;11.126;2023-02-01T00:23:51;3.85;87.72
71096;DHT22;58753;49.440;11.126;2023-02-01T00:26:19;3.85;87.82
71096;DHT22;58753;49.440;11.126;2023-02-01T00:28:45;3.83;87.87
71096;DHT22;58753;49.440;11.126;2023-02-01T00:31:11;3.79;87.97
71096;DHT22;58753;49.440;11.126;2023-02-01T00:33:36;3.82;88.11
71096;DHT22;58753;49.440;11.126;2023-02-01T00:36:04;3.85;88.04
71096;DHT22;58753;49.440;11.126;2023-02-01T00:38:31;3.87;88.09
71096;DHT22;58753;49.440;11.126;2023-02-01T00:41:09;3.94;87.99
71096;DHT22;58753;49.440;11.126;2023-02-01T00:43:35;4.00;87.83
71096;DHT22;58753;49.440;11.126;2023-02-01T00:46:01;4.06;87.56
71096;DHT22;58753;49.440;11.126;2023-02-01T00:48:27;4.06;87.35
71096;DHT22;58753;49.440;11.126;2023-02-01T00:50:52;4.03;87.39
71096;DHT22;58753;49.440;11.126;2023-02-01T00:53:18;4.09;87.37
71096;DHT22;58753;49.440;11.126;2023-02-01T00:55:47;4.14;87.12
71096;DHT22;58753;49.440;11.126;2023-02-01T00:58:13;4.13;87.00
71096;DHT22;58753;49.440;11.126;2023-02-01T01:00:38;4.09;87.04
71096;DHT22;58753;49.440;11.126;2023-02-01T01:03:04;4.09;87.03
71096;DHT22;58753;49.440;11.126;2023-02-01T01:05:50;4.16;86.96
71096;DHT22;58753;49.440;11.126;2023-02-01T01:08:15;4.18;86.67
71096;DHT22;58753;49.440;11.126;2023-02-01T01:10:42;4.21;86.62
71096;DHT22;58753;49.440;11.126;2023-02-01T01:13:08;4.14;86.54
71096;DHT22;58753;49.440;11.126;2023-02-01T01:15:38;4.24;86.58
71096;DHT22;58753;49.440;11.126;2023-02-01T01:18:05;4.18;86.32
71096;DHT22;58753;49.440;11.126;2023-02-01T01:20:30;4.13;86.39
71096;DHT22;58753;49.440;11.126;2023-02-01T01:22:56;4.07;86.54
71096;DHT22;58753;49.440;11.126;2023-02-01T01:25:21;4.11;86.63
71096;DHT22;58753;49.440;11.126;2023-02-01T01:27:47;4.09;86.54
71096;DHT22;58753;49.440;11.126;2023-02-01T01:30:12;4.09;86.66
71096;DHT22;58753;49.440;11.126;2023-02-01T01:32:38;4.03;86.75
71096;DHT22;58753;49.440;11.126;2023-02-01T01:35:03;4.06;86.93
71096;DHT22;58753;49.440;11.126;2023-02-01T01:37:29;3.97;87.07
71096;DHT22;58753;49.440;11.126;2023-02-01T01:39:54;4.00;87.24
71096;DHT22;58753;49.440;11.126;2023-02-01T01:42:21;3.87;87.44
71096;DHT22;58753;49.440;11.126;2023-02-01T01:47:26;3.83;88.10
71096;DHT22;58753;49.440;11.126;2023-02-01T01:49:52;3.80;88.32
71096;DHT22;58753;49.440;11.126;2023-02-01T01:52:18;3.83;88.52
71096;DHT22;58753;49.440;11.126;2023-02-01T01:54:49;3.87;88.47
71096;DHT22;58753;49.440;11.126;2023-02-01T01:57:39;3.90;88.44
71096;DHT22;58753;49.440;11.126;2023-02-01T02:00:13;3.92;88.37
71096;DHT22;58753;49.440;11.126;2023-02-01T02:02:41;3.87;88.41
71096;DHT22;58753;49.440;11.126;2023-02-01T02:05:08;3.87;88.44
71096;DHT22;58753;49.440;11.126;2023-02-01T02:07:37;3.90;88.49
71096;DHT22;58753;49.440;11.126;2023-02-01T02:10:05;3.93;88.39
71096;DHT22;58753;49.440;11.126;2023-02-01T02:12:32;3.92;88.39
71096;DHT22;58753;49.440;11.126;2023-02-01T02:14:58;3.92;88.30
71096;DHT22;58753;49.440;11.126;2023-02-01T02:17:33;3.96;88.31
71096;DHT22;58753;49.440;11.126;2023-02-01T02:36:37;3.94;87.87
71096;DHT22;58753;49.440;11.126;2023-02-01T02:42:17;3.93;87.82
71096;DHT22;58753;49.440;11.126;2023-02-01T02:48:23;3.97;87.83
71096;DHT22;58753;49.440;11.126;2023-02-01T02:50:55;3.92;87.98
71096;DHT22;58753;49.440;11.126;2023-02-01T02:53:47;3.85;88.25
71096;DHT22;58753;49.440;11.126;2023-02-01T02:56:32;3.87;88.32
71096;DHT22;58753;49.440;11.126;2023-02-01T02:59:20;3.82;88.57
71096;DHT22;58753;49.440;11.126;2023-02-01T03:02:04;3.83;88.82
71096;DHT22;58753;49.440;11.126;2023-02-01T03:04:55;3.79;88.91
71096;DHT22;58753;49.440;11.126;2023-02-01T03:10:18;3.75;89.28
71096;DHT22;58753;49.440;11.126;2023-02-01T03:12:46;3.69;89.32
71096;DHT22;58753;49.440;11.126;2023-02-01T03:18:17;3.76;89.25
71096;DHT22;58753;49.440;11.126;2023-02-01T03:20:46;3.76;89.24
71096;DHT22;58753;49.440;11.126;2023-02-01T03:23:16;3.78;89.10
71096;DHT22;58753;49.440;11.126;2023-02-01T03:25:42;3.79;89.08
71096;DHT22;58753;49.440;11.126;2023-02-01T03:28:09;3.80;89.07
71096;DHT22;58753;49.440;11.126;2023-02-01T03:30:41;3.73;89.11
71096;DHT22;58753;49.440;11.126;2023-02-01T03:33:12;3.75;89.23
71096;DHT22;58753;49.440;11.126;2023-02-01T03:43:56;3.70;89.57
71096;DHT22;58753;49.440;11.126;2023-02-01T03:46:37;3.70;89.60
71096;DHT22;58753;49.440;11.126;2023-02-01T03:49:10;3.73;89.58
71096;DHT22;58753;49.440;11.126;2023-02-01T03:51:40;3.76;89.48
71096;DHT22;58753;49.440;11.126;2023-02-01T03:54:09;3.79;89.44
71096;DHT22;58753;49.440;11.126;2023-02-01T03:56:38;3.82;89.37
71096;DHT22;58753;49.440;11.126;2023-02-01T03:59:05;3.83;89.38
71096;DHT22;58753;49.440;11.126;2023-02-01T04:01:31;3.86;89.35
71096;DHT22;58753;49.440;11.126;2023-02-01T04:03:57;3.87;89.18
71096;DHT22;58753;49.440;11.126;2023-02-01T04:06:23;3.89;89.07
71096;DHT22;58753;49.440;11.126;2023-02-01T04:08:49;3.89;88.95
71096;DHT22;58753;49.440;11.126;2023-02-01T04:11:14;3.87;89.01
71096;DHT22;58753;49.440;11.126;2023-02-01T04:13:40;3.87;89.05
71096;DHT22;58753;49.440;11.126;2023-02-01T04:16:05;3.89;88.96
71096;DHT22;58753;49.440;11.126;2023-02-01T04:18:31;3.94;88.88
71096;DHT22;58753;49.440;11.126;2023-02-01T04:20:56;3.94;88.77
71096;DHT22;58753;49.440;11.126;2023-02-01T04:23:22;3.94;88.75
71096;DHT22;58753;49.440;11.126;2023-02-01T04:25:48;3.96;88.62
71096;DHT22;58753;49.440;11.126;2023-02-01T04:28:13;3.96;88.65
71096;DHT22;58753;49.440;11.126;2023-02-01T04:30:39;3.97;88.61
71096;DHT22;58753;49.440;11.126;2023-02-01T04:33:04;3.99;88.49
71096;DHT22;58753;49.440;11.126;2023-02-01T04:35:33;4.02;88.49
71096;DHT22;58753;49.440;11.126;2023-02-01T04:37:59;4.03;88.39
71096;DHT22;58753;49.440;11.126;2023-02-01T04:40:24;4.06;88.26
71096;DHT22;58753;49.440;11.126;2023-02-01T04:42:50;3.99;88.28
71096;DHT22;58753;49.440;11.126;2023-02-01T04:45:15;3.96;88.41
71096;DHT22;58753;49.440;11.126;2023-02-01T04:47:41;3.83;88.53
71096;DHT22;58753;49.440;11.126;2023-02-01T04:50:06;3.75;88.81
71096;DHT22;58753;49.440;11.126;2023-02-01T04:52:35;3.65;89.13
71096;DHT22;58753;49.440;11.126;2023-02-01T04:55:01;3.65;89.50
71096;DHT22;58753;49.440;11.126;2023-02-01T04:57:28;3.62;89.65
71096;DHT22;58753;49.440;11.126;2023-02-01T04:59:53;3.55;89.89
71096;DHT22;58753;49.440;11.126;2023-02-01T05:02:19;3.59;90.10
71096;DHT22;58753;49.440;11.126;2023-02-01T05:04:44;3.58;90.26
71096;DHT22;58753;49.440;11.126;2023-02-01T05:07:10;3.58;90.36
71096;DHT22;58753;49.440;11.126;2023-02-01T05:09:35;3.55;90.42
71096;DHT22;58753;49.440;11.126;2023-02-01T05:12:00;3.54;90.62
71096;DHT22;58753;49.440;11.126;2023-02-01T05:14:45;3.51;90.77
71096;DHT22;58753;49.440;11.126;2023-02-01T05:17:10;3.48;90.75
71096;DHT22;58753;49.440;11.126;2023-02-01T05:19:35;3.51;90.94
71096;DHT22;58753;49.440;11.126;2023-02-01T05:22:01;3.49;91.11
71096;DHT22;58753;49.440;11.126;2023-02-01T05:24:26;3.51;91.13
71096;DHT22;58753;49.440;11.126;2023-02-01T05:26:52;3.49;91.31
71096;DHT22;58753;49.440;11.126;2023-02-01T05:29:17;3.49;91.17
71096;DHT22;58753;49.440;11.126;2023-02-01T05:31:46;3.48;91.56
71096;DHT22;58753;49.440;11.126;2023-02-01T05:34:12;3.48;91.35
71096;DHT22;58753;49.440;11.126;2023-02-01T05:36:38;3.46;91.54
71096;DHT22;58753;49.440;11.126;2023-02-01T05:39:03;3.45;91.63
71096;DHT22;58753;49.440;11.126;2023-02-01T05:41:29;3.40;91.73
71096;DHT22;58753;49.440;11.126;2023-02-01T05:43:54;3.42;91.88
71096;DHT22;58753;49.440;11.126;2023-02-01T05:46:19;3.43;91.87
71096;DHT22;58753;49.440;11.126;2023-02-01T05:48:45;3.39;91.86
71096;DHT22;58753;49.440;11.126;2023-02-01T05:51:11;3.36;91.94
71096;DHT22;58753;49.440;11.126;2023-02-01T05:53:37;3.46;92.00
71096;DHT22;58753;49.440;11.126;2023-02-01T05:56:02;3.36;91.85
71096;DHT22;58753;49.440;11.126;2023-02-01T05:58:28;3.38;91.72
71096;DHT22;58753;49.440;11.126;2023-02-01T06:00:54;3.24;91.65
71096;DHT22;58753;49.440;11.126;2023-02-01T06:03:19;3.15;91.82
71096;DHT22;58753;49.440;11.126;2023-02-01T06:05:45;3.07;92.15
71096;DHT22;58753;49.440;11.126;2023-02-01T06:08:11;3.11;92.32
71096;DHT22;58753;49.440;11.126;2023-02-01T06:10:37;3.05;92.33
71096;DHT22;58753;49.440;11.126;2023-02-01T06:13:02;3.03;92.43
71096;DHT22;58753;49.440;11.126;2023-02-01T06:15:29;2.98;92.47
71096;DHT22;58753;49.440;11.126;2023-02-01T06:17:55;2.97;92.50
71096;DHT22;58753;49.440;11.126;2023-02-01T06:20:21;2.98;92.63
71096;DHT22;58753;49.440;11.126;2023-02-01T06:22:46;2.91;92.66
71096;DHT22;58753;49.440;11.126;2023-02-01T06:25:12;2.91;92.75
71096;DHT22;58753;49.440;11.126;2023-02-01T06:27:37;2.87;92.85
71096;DHT22;58753;49.440;11.126;2023-02-01T06:30:04;2.85;93.06
71096;DHT22;58753;49.440;11.126;2023-02-01T06:32:30;2.84;93.20
71096;DHT22;58753;49.440;11.126;2023-02-01T06:34:56;2.87;93.08
71096;DHT22;58753;49.440;11.126;2023-02-01T06:37:22;2.88;93.26
71096;DHT22;58753;49.440;11.126;2023-02-01T06:39:50;2.91;93.28
71096;DHT22;58753;49.440;11.126;2023-02-01T06:42:15;2.93;93.37
71096;DHT22;58753;49.440;11.126;2023-02-01T06:44:40;2.95;93.29
71096;DHT22;58753;49.440;11.126;2023-02-01T06:47:06;2.95;93.36
71096;DHT22;58753;49.440;11.126;2023-02-01T06:49:31;2.95;93.38
71096;DHT22;58753;49.440;11.126;2023-02-01T06:51:56;2.97;93.37
71096;DHT22;58753;49.440;11.126;2023-02-01T06:54:22;2.97;93.40
71096;DHT22;58753;49.440;11.126;2023-02-01T06:56:47;3.01;93.40
71096;DHT22;58753;49.440;11.126;2023-02-01T06:59:13;3.03;93.28
71096;DHT22;58753;49.440;11.126;2023-02-01T07:01:38;3.03;93.40
71096;DHT22;58753;49.440;11.126;2023-02-01T07:04:04;3.07;93.33
71096;DHT22;58753;49.440;11.126;2023-02-01T07:06:29;3.07;93.33
71096;DHT22;58753;49.440;11.126;2023-02-01T07:08:55;3.07;93.30
71096;DHT22;58753;49.440;11.126;2023-02-01T07:11:23;3.04;93.40
71096;DHT22;58753;49.440;11.126;2023-02-01T07:13:49;3.07;93.31
71096;DHT22;58753;49.440;11.126;2023-02-01T07:16:17;3.07;93.45
71096;DHT22;58753;49.440;11.126;2023-02-01T07:18:43;3.08;93.38
71096;DHT22;58753;49.440;11.126;2023-02-01T07:21:09;3.15;93.54
71096;DHT22;58753;49.440;11.126;2023-02-01T07:23:34;3.17;93.40
71096;DHT22;58753;49.440;11.126;2023-02-01T07:26:02;3.15;93.50
71096;DHT22;58753;49.440;11.126;2023-02-01T07:28:29;3.17;93.44
71096;DHT22;58753;49.440;11.126;2023-02-01T07:31:05;3.21;93.51
71096;DHT22;58753;49.440;11.126;2023-02-01T07:33:31;3.22;93.54
71096;DHT22;58753;49.440;11.126;2023-02-01T07:35:56;3.28;93.47
71096;DHT22;58753;49.440;11.126;2023-02-01T07:38:21;3.27;93.50
71096;DHT22;58753;49.440;11.126;2023-02-01T07:40:49;3.31;93.55
71096;DHT22;58753;49.440;11.126;2023-02-01T07:43:14;3.36;93.45
71096;DHT22;58753;49.440;11.126;2023-02-01T07:45:39;3.39;93.42
71096;DHT22;58753;49.440;11.126;2023-02-01T07:48:05;3.39;93.42
71096;DHT22;58753;49.440;11.126;2023-02-01T07:50:30;3.49;93.36
71096;DHT22;58753;49.440;11.126;2023-02-01T07:52:59;3.54;93.26
71096;DHT22;58753;49.440;11.126;2023-02-01T07:55:25;3.60;93.22
71096;DHT22;58753;49.440;11.126;2023-02-01T07:57:51;3.62;93.11
71096;DHT22;58753;49.440;11.126;2023-02-01T08:00:17;3.63;93.10
71096;DHT22;58753;49.440;11.126;2023-02-01T08:03:01;3.69;93.00
71096;DHT22;58753;49.440;11.126;2023-02-01T08:05:28;3.72;92.87
71096;DHT22;58753;49.440;11.126;2023-02-01T08:07:53;3.80;92.64
71096;DHT22;58753;49.440;11.126;2023-02-01T08:10:19;3.78;92.57
71096;DHT22;58753;49.440;11.126;2023-02-01T08:12:45;3.82;92.43
71096;DHT22;58753;49.440;11.126;2023-02-01T08:15:17;3.79;92.32
71096;DHT22;58753;49.440;11.126;2023-02-01T08:17:50;3.79;92.24
71096;DHT22;58753;49.440;11.126;2023-02-01T08:20:16;3.78;92.14
71096;DHT22;58753;49.440;11.126;2023-02-01T08:22:42;3.76;92.18
71096;DHT22;58753;49.440;11.126;2023-02-01T08:25:08;3.78;92.08
71096;DHT22;58753;49.440;11.126;2023-02-01T08:27:34;3.83;92.12
71096;DHT22;58753;49.440;11.126;2023-02-01T08:29:59;3.92;92.22
71096;DHT22;58753;49.440;11.126;2023-02-01T08:32:26;4.00;91.87
71096;DHT22;58753;49.440;11.126;2023-02-01T08:34:51;4.02;91.48
71096;DHT22;58753;49.440;11.126;2023-02-01T08:37:17;4.13;91.43
71096;DHT22;58753;49.440;11.126;2023-02-01T08:39:42;4.10;90.88
71096;DHT22;58753;49.440;11.126;2023-02-01T08:42:12;4.14;90.83
71096;DHT22;58753;49.440;11.126;2023-02-01T08:44:56;4.18;90.57
71096;DHT22;58753;49.440;11.126;2023-02-01T08:47:22;4.23;90.42
71096;DHT22;58753;49.440;11.126;2023-02-01T08:49:48;4.18;90.31
71096;DHT22;58753;49.440;11.126;2023-02-01T08:52:13;4.20;90.24
71096;DHT22;58753;49.440;11.126;2023-02-01T08:54:39;4.23;89.92
71096;DHT22;58753;49.440;11.126;2023-02-01T08:57:06;4.24;89.93
71096;DHT22;58753;49.440;11.126;2023-02-01T08:59:31;4.21;89.83
71096;DHT22;58753;49.440;11.126;2023-02-01T09:01:57;4.25;89.71
71096;DHT22;58753;49.440;11.126;2023-02-01T09:04:22;4.20;89.58
71096;DHT22;58753;49.440;11.126;2023-02-01T09:06:47;4.17;89.55
71096;DHT22;58753;49.440;11.126;2023-02-01T09:09:13;4.23;89.46
71096;DHT22;58753;49.440;11.126;2023-02-01T09:11:38;4.21;89.39
71096;DHT22;58753;49.440;11.126;2023-02-01T09:14:04;4.21;89.38
71096;DHT22;58753;49.440;11.126;2023-02-01T09:16:29;4.24;89.53
71096;DHT22;58753;49.440;11.126;2023-02-01T09:18:55;4.27;89.36
71096;DHT22;58753;49.440;11.126;2023-02-01T09:21:20;4.21;89.45
71096;DHT22;58753;49.440;11.126;2023-02-01T09:23:45;4.21;89.52
71096;DHT22;58753;49.440;11.126;2023-02-01T09:26:13;4.16;89.37
71096;DHT22;58753;49.440;11.126;2023-02-01T09:28:39;4.16;89.41
71096;DHT22;58753;49.440;11.126;2023-02-01T09:31:05;4.09;89.33
71096;DHT22;58753;49.440;11.126;2023-02-01T09:33:30;3.93;89.20
71096;DHT22;58753;49.440;11.126;2023-02-01T09:36:00;3.85;89.03
71096;DHT22;58753;49.440;11.126;2023-02-01T09:38:26;3.68;88.99
71096;DHT22;58753;49.440;11.126;2023-02-01T09:40:53;3.54;89.31
71096;DHT22;58753;49.440;11.126;2023-02-01T09:43:40;3.38;89.64
71096;DHT22;58753;49.440;11.126;2023-02-01T09:46:21;3.22;89.68
71096;DHT22;58753;49.440;11.126;2023-02-01T09:48:49;3.15;89.89
71096;DHT22;58753;49.440;11.126;2023-02-01T09:51:20;3.19;90.20
71096;DHT22;58753;49.440;11.126;2023-02-01T09:53:57;3.25;90.17
71096;DHT22;58753;49.440;11.126;2023-02-01T09:56:27;3.25;90.36
71096;DHT22;58753;49.440;11.126;2023-02-01T09:59:06;3.34;90.34
71096;DHT22;58753;49.440;11.126;2023-02-01T10:01:35;3.54;90.14
71096;DHT22;58753;49.440;11.126;2023-02-01T10:04:07;3.65;89.86
71096;DHT22;58753;49.440;11.126;2023-02-01T10:07:19;3.70;89.85
71096;DHT22;58753;49.440;11.126;2023-02-01T10:20:20;3.86;89.48
71096;DHT22;58753;49.440;11.126;2023-02-01T10:25:55;3.94;89.74
71096;DHT22;58753;49.440;11.126;2023-02-01T10:28:22;4.03;89.90
71096;DHT22;58753;49.440;11.126;2023-02-01T10:30:52;4.10;89.78
71096;DHT22;58753;49.440;11.126;2023-02-01T10:33:34;4.20;89.78
71096;DHT22;58753;49.440;11.126;2023-02-01T10:36:15;4.25;89.70
71096;DHT22;58753;49.440;11.126;2023-02-01T10:38:42;4.33;89.28
71096;DHT22;58753;49.440;11.126;2023-02-01T10:41:15;4.44;88.85
71096;DHT22;58753;49.440;11.126;2023-02-01T10:43:42;4.48;88.52
71096;DHT22;58753;49.440;11.126;2023-02-01T10:46:08;4.50;88.34
71096;DHT22;58753;49.440;11.126;2023-02-01T10:48:34;4.55;88.25
71096;DHT22;58753;49.440;11.126;2023-02-01T10:51:21;4.54;87.98
71096;DHT22;58753;49.440;11.126;2023-02-01T10:53:52;4.45;87.78
71096;DHT22;58753;49.440;11.126;2023-02-01T10:56:24;4.43;87.89
71096;DHT22;58753;49.440;11.126;2023-02-01T10:58:49;4.34;87.85
71096;DHT22;58753;49.440;11.126;2023-02-01T11:01:19;4.27;87.94
71096;DHT22;58753;49.440;11.126;2023-02-01T11:04:00;4.21;88.12
71096;DHT22;58753;49.440;11.126;2023-02-01T11:06:33;4.23;88.26
71096;DHT22;58753;49.440;11.126;2023-02-01T11:09:22;4.11;88.16
71096;DHT22;58753;49.440;11.126;2023-02-01T11:19:18;4.11;88.72
71096;DHT22;58753;49.440;11.126;2023-02-01T11:21:44;4.13;88.76
71096;DHT22;58753;49.440;11.126;2023-02-01T11:24:26;4.17;88.87
71096;DHT22;58753;49.440;11.126;2023-02-01T11:26:56;4.27;88.65
71096;DHT22;58753;49.440;11.126;2023-02-01T11:29:23;4.25;88.23
71096;DHT22;58753;49.440;11.126;2023-02-01T11:31:59;4.34;87.83
71096;DHT22;58753;49.440;11.126;2023-02-01T11:34:29;4.38;87.74
71096;DHT22;58753;49.440;11.126;2023-02-01T11:37:00;4.40;87.25
71096;DHT22;58753;49.440;11.126;2023-02-01T11:39:35;4.36;87.02
71096;DHT22;58753;49.440;11.126;2023-02-01T11:42:12;4.37;86.91
71096;DHT22;58753;49.440;11.126;2023-02-01T11:44:40;4.40;86.66
71096;DHT22;58753;49.440;11.126;2023-02-01T11:49:46;4.44;86.32
71096;DHT22;58753;49.440;11.126;2023-02-01T11:52:21;4.43;86.32
71096;DHT22;58753;49.440;11.126;2023-02-01T12:13:50;4.48;85.47
71096;DHT22;58753;49.440;11.126;2023-02-01T12:19:29;4.53;84.99
71096;DHT22;58753;49.440;11.126;2023-02-01T12:33:00;4.57;84.45
71096;DHT22;58753;49.440;11.126;2023-02-01T12:35:59;4.61;84.20
71096;DHT22;58753;49.440;11.126;2023-02-01T12:41:51;4.65;84.15
71096;DHT22;58753;49.440;11.126;2023-02-01T12:47:09;4.71;83.45
71096;DHT22;58753;49.440;11.126;2023-02-01T12:53:12;4.81;83.07
71096;DHT22;58753;49.440;11.126;2023-02-01T12:57:51;4.96;82.77
71096;DHT22;58753;49.440;11.126;2023-02-01T13:00:32;5.04;82.50
71096;DHT22;58753;49.440;11.126;2023-02-01T13:03:05;5.05;82.19
71096;DHT22;58753;49.440;11.126;2023-02-01T13:06:02;5.05;81.80
71096;DHT22;58753;49.440;11.126;2023-02-01T13:08:43;5.08;81.68
71096;DHT22;58753;49.440;11.126;2023-02-01T13:11:32;5.08;81.46
71096;DHT22;58753;49.440;11.126;2023-02-01T13:16:41;4.96;81.68
71096;DHT22;58753;49.440;11.126;2023-02-01T13:19:13;4.89;81.81
71096;DHT22;58753;49.440;11.126;2023-02-01T13:21:46;4.82;81.92
71096;DHT22;58753;49.440;11.126;2023-02-01T13:26:45;4.72;82.34
71096;DHT22;58753;49.440;11.126;2023-02-01T13:29:12;4.71;82.45
71096;DHT22;58753;49.440;11.126;2023-02-01T13:36:59;4.69;83.22
71096;DHT22;58753;49.440;11.126;2023-02-01T13:39:47;4.72;83.14
71096;DHT22;58753;49.440;11.126;2023-02-01T13:42:18;4.72;83.24
71096;DHT22;58753;49.440;11.126;2023-02-01T13:44:49;4.75;82.95
71096;DHT22;58753;49.440;11.126;2023-02-01T13:47:30;4.84;83.02
71096;DHT22;58753;49.440;11.126;2023-02-01T13:50:04;4.85;82.44
71096;DHT22;58753;49.440;11.126;2023-02-01T13:52:40;4.89;82.27
71096;DHT22;58753;49.440;11.126;2023-02-01T13:57:40;5.02;81.88
71096;DHT22;58753;49.440;11.126;2023-02-01T14:00:29;5.04;81.67
71096;DHT22;58753;49.440;11.126;2023-02-01T14:03:08;4.99;81.55
71096;DHT22;58753;49.440;11.126;2023-02-01T14:10:50;5.00;81.12
71096;DHT22;58753;49.440;11.126;2023-02-01T14:13:35;5.09;81.34
71096;DHT22;58753;49.440;11.126;2023-02-01T14:26:42;5.12;80.85
71096;DHT22;58753;49.440;11.126;2023-02-01T14:42:47;5.00;80.43
71096;DHT22;58753;49.440;11.126;2023-02-01T14:58:06;4.95;80.47
71096;DHT22;58753;49.440;11.126;2023-02-01T15:00:32;4.89;80.35
71096;DHT22;58753;49.440;11.126;2023-02-01T15:06:20;4.85;80.69
71096;DHT22;58753;49.440;11.126;2023-02-01T15:08:46;4.85;80.94
71096;DHT22;58753;49.440;11.126;2023-02-01T15:11:15;4.86;80.84
71096;DHT22;58753;49.440;11.126;2023-02-01T15:13:48;4.85;80.88
71096;DHT22;58753;49.440;11.126;2023-02-01T15:16:16;4.75;80.91
71096;DHT22;58753;49.440;11.126;2023-02-01T15:18:42;4.74;81.18
71096;DHT22;58753;49.440;11.126;2023-02-01T15:21:37;4.71;81.32
71096;DHT22;58753;49.440;11.126;2023-02-01T15:24:14;4.75;81.22
71096;DHT22;58753;49.440;11.126;2023-02-01T15:26:40;4.72;81.32
71096;DHT22;58753;49.440;11.126;2023-02-01T15:29:10;4.75;81.38
71096;DHT22;58753;49.440;11.126;2023-02-01T15:31:44;4.75;81.16
71096;DHT22;58753;49.440;11.126;2023-02-01T15:34:10;4.74;81.16
71096;DHT22;58753;49.440;11.126;2023-02-01T15:36:36;4.72;81.18
71096;DHT22;58753;49.440;11.126;2023-02-01T15:39:23;4.74;80.96
71096;DHT22;58753;49.440;11.126;2023-02-01T15:42:11;4.88;80.88
71096;DHT22;58753;49.440;11.126;2023-02-01T15:44:42;4.93;80.49
71096;DHT22;58753;49.440;11.126;2023-02-01T15:47:15;4.91;80.13
71096;DHT22;58753;49.440;11.126;2023-02-01T15:49:43;4.88;80.05
71096;DHT22;58753;49.440;11.126;2023-02-01T15:54:56;5.04;79.67
71096;DHT22;58753;49.440;11.126;2023-02-01T15:57:26;4.98;79.02
71096;DHT22;58753;49.440;11.126;2023-02-01T15:59:57;4.92;79.07
71096;DHT22;58753;49.440;11.126;2023-02-01T16:02:27;4.96;78.95
71096;DHT22;58753;49.440;11.126;2023-02-01T16:04:53;4.93;78.63
71096;DHT22;58753;49.440;11.126;2023-02-01T16:07:27;4.98;78.47
71096;DHT22;58753;49.440;11.126;2023-02-01T16:09:55;4.99;78.30
71096;DHT22;58753;49.440;11.126;2023-02-01T16:12:45;4.99;78.00
71096;DHT22;58753;49.440;11.126;2023-02-01T16:15:11;4.98;77.83
71096;DHT22;58753;49.440;11.126;2023-02-01T16:17:37;4.96;77.61
71096;DHT22;58753;49.440;11.126;2023-02-01T16:20:02;5.00;77.58
71096;DHT22;58753;49.440;11.126;2023-02-01T16:22:28;5.00;77.46
71096;DHT22;58753;49.440;11.126;2023-02-01T16:24:54;5.00;77.16
71096;DHT22;58753;49.440;11.126;2023-02-01T16:27:19;5.04;76.91
71096;DHT22;58753;49.440;11.126;2023-02-01T16:29:46;5.02;76.62
71096;DHT22;58753;49.440;11.126;2023-02-01T16:32:20;5.02;76.80
71096;DHT22;58753;49.440;11.126;2023-02-01T16:34:47;5.00;76.64
71096;DHT22;58753;49.440;11.126;2023-02-01T16:37:23;4.99;76.37
71096;DHT22;58753;49.440;11.126;2023-02-01T16:39:49;5.04;76.51
71096;DHT22;58753;49.440;11.126;2023-02-01T16:42:15;5.08;76.08
71096;DHT22;58753;49.440;11.126;2023-02-01T16:44:42;5.04;75.84
71096;DHT22;58753;49.440;11.126;2023-02-01T16:47:16;5.04;76.02
71096;DHT22;58753;49.440;11.126;2023-02-01T16:49:43;5.00;75.73
71096;DHT22;58753;49.440;11.126;2023-02-01T16:52:20;4.99;75.73
71096;DHT22;58753;49.440;11.126;2023-02-01T16:54:46;4.99;75.81
71096;DHT22;58753;49.440;11.126;2023-02-01T16:57:14;5.04;75.68
71096;DHT22;58753;49.440;11.126;2023-02-01T16:59:40;5.08;75.63
71096;DHT22;58753;49.440;11.126;2023-02-01T17:02:13;5.04;75.54
71096;DHT22;58753;49.440;11.126;2023-02-01T17:04:39;5.06;75.57
71096;DHT22;58753;49.440;11.126;2023-02-01T17:07:05;5.11;75.45
71096;DHT22;58753;49.440;11.126;2023-02-01T17:09:37;5.12;75.20
71096;DHT22;58753;49.440;11.126;2023-02-01T17:12:04;5.08;75.03
71096;DHT22;58753;49.440;11.126;2023-02-01T17:14:31;5.12;75.05
71096;DHT22;58753;49.440;11.126;2023-02-01T17:16:57;5.12;74.83
71096;DHT22;58753;49.440;11.126;2023-02-01T17:19:23;5.15;74.87
71096;DHT22;58753;49.440;11.126;2023-02-01T17:21:50;5.11;74.59
71096;DHT22;58753;49.440;11.126;2023-02-01T17:24:22;5.16;74.49
71096;DHT22;58753;49.440;11.126;2023-02-01T17:26:48;5.20;74.31
71096;DHT22;58753;49.440;11.126;2023-02-01T17:29:15;5.20;74.24
71096;DHT22;58753;49.440;11.126;2023-02-01T17:31:43;5.16;74.14
71096;DHT22;58753;49.440;11.126;2023-02-01T17:34:11;5.12;74.28
71096;DHT22;58753;49.440;11.126;2023-02-01T17:36:36;5.13;74.25
71096;DHT22;58753;49.440;11.126;2023-02-01T17:39:04;5.19;74.13
71096;DHT22;58753;49.440;11.126;2023-02-01T17:41:29;5.18;74.05
71096;DHT22;58753;49.440;11.126;2023-02-01T17:43:54;5.22;73.89
71096;DHT22;58753;49.440;11.126;2023-02-01T17:46:20;5.19;73.98
71096;DHT22;58753;49.440;11.126;2023-02-01T17:48:54;5.19;73.94
71096;DHT22;58753;49.440;11.126;2023-02-01T17:51:21;5.19;74.11
71096;DHT22;58753;49.440;11.126;2023-02-01T17:53:48;5.18;74.18
71096;DHT22;58753;49.440;11.126;2023-02-01T17:56:15;5.12;74.33
71096;DHT22;58753;49.440;11.126;2023-02-01T17:58:42;5.13;74.26
71096;DHT22;58753;49.440;11.126;2023-02-01T18:03:41;5.16;74.40
71096;DHT22;58753;49.440;11.126;2023-02-01T18:06:15;5.13;74.49
71096;DHT22;58753;49.440;11.126;2023-02-01T18:08:41;5.13;74.54
71096;DHT22;58753;49.440;11.126;2023-02-01T18:11:24;5.18;74.47
71096;DHT22;58753;49.440;11.126;2023-02-01T18:13:52;5.19;74.44
71096;DHT22;58753;49.440;11.126;2023-02-01T18:18:49;5.12;74.77
71096;DHT22;58753;49.440;11.126;2023-02-01T18:21:16;5.18;74.54
71096;DHT22;58753;49.440;11.126;2023-02-01T18:23:43;5.20;74.42
71096;DHT22;58753;49.440;11.126;2023-02-01T18:26:13;5.33;74.04
71096;DHT22;58753;49.440;11.126;2023-02-01T18:28:38;5.37;73.85
71096;DHT22;58753;49.440;11.126;2023-02-01T18:31:05;5.33;73.89
71096;DHT22;58753;49.440;11.126;2023-02-01T18:33:31;5.36;73.85
71096;DHT22;58753;49.440;11.126;2023-02-01T18:35:56;5.35;73.93
71096;DHT22;58753;49.440;11.126;2023-02-01T18:38:22;5.33;73.96
71096;DHT22;58753;49.440;11.126;2023-02-01T18:40:54;5.32;74.03